sensor_id;sensor_type;location;lat;lon;timestamp;temperature;humidity
40996;DHT22;26723;57.478;12.066;2023-04-30T00:01:25;7.10;99.90
40996;DHT22;26723;57.478;12.066;2023-04-30T00:04:33;7.10;99.90
40996;DHT22;26723;57.478;12.066;2023-04-30T00:07:42;7.10;99.90
40996;DHT22;26723;57.478;12.066;2023-04-30T00:10:51;7.00;99.90
40996;DHT22;26723;57.478;12.066;2023-04-30T00:14:01;7.10;99.90
40996;DHT22;26723;57.478;12.066;2023-04-30T00:17:09;7.00;99.90
40996;DHT22;26723;57.478;12.066;2023-04-30T00:20:18;7.00;99.90
40996;DHT22;26723;57.478;12.066;2023-04-30T00:23:27;6.90;99.90
40996;DHT22;26723;57.478;12.066;2023-04-30T00:26:35;7.00;99.90
40996;DHT22;26723;57.478;12.066;2023-04-30T00:29:45;6.90;99.90
40996;DHT22;26723;57.478;12.066;2023-04-30T00:32:54;6.90;99.90
40996;DHT22;26723;57.478;12.066;2023-04-30T00:36:03;6.80;99.90
40996;DHT22;26723;57.478;12.066;2023-04-30T00:39:12;6.80;99.90
40996;DHT22;26723;57.478;12.066;2023-04-30T00:42:20;6.80;99.90
40996;DHT22;26723;57.478;12.066;2023-04-30T00:45:30;6.80;99.90
40996;DHT22;26723;57.478;12.066;2023-04-30T00:48:39;6.70;99.90
40996;DHT22;26723;57.478;12.066;2023-04-30T00:51:47;6.80;99.90
40996;DHT22;26723;57.478;12.066;2023-04-30T00:54:56;6.80;99.90
40996;DHT22;26723;57.478;12.066;2023-04-30T00:58:05;6.80;99.90
40996;DHT22;26723;57.478;12.066;2023-04-30T01:01:17;6.70;99.90
40996;DHT22;26723;57.478;12.066;2023-04-30T01:04:25;6.70;99.90
40996;DHT22;26723;57.478;12.066;2023-04-30T01:07:35;6.60;99.90
40996;DHT22;26723;57.478;12.066;2023-04-30T01:10:55;6.60;99.90
40996;DHT22;26723;57.478;12.066;2023-04-30T01:14:12;6.60;99.90
40996;DHT22;26723;57.478;12.066;2023-04-30T01:17:37;6.70;99.90
40996;DHT22;26723;57.478;12.066;2023-04-30T01:20:55;6.70;99.90
40996;DHT22;26723;57.478;12.066;2023-04-30T01:24:17;6.70;99.90
40996;DHT22;26723;57.478;12.066;2023-04-30T01:31:18;6.60;99.90
40996;DHT22;26723;57.478;12.066;2023-04-30T01:34:28;6.60;99.90
40996;DHT22;26723;57.478;12.066;2023-04-30T01:37:41;6.60;99.90
40996;DHT22;26723;57.478;12.066;2023-04-30T01:41:08;6.50;99.90
40996;DHT22;26723;57.478;12.066;2023-04-30T01:44:28;6.50;99.90
40996;DHT22;26723;57.478;12.066;2023-04-30T01:47:47;6.50;99.90
40996;DHT22;26723;57.478;12.066;2023-04-30T01:51:07;6.50;99.90
40996;DHT22;26723;57.478;12.066;2023-04-30T01:54:25;6.40;99.90
40996;DHT22;26723;57.478;12.066;2023-04-30T01:57:42;6.50;99.90
40996;DHT22;26723;57.478;12.066;2023-04-30T02:00:51;6.50;99.90
40996;DHT22;26723;57.478;12.066;2023-04-30T02:04:01;6.50;99.90
40996;DHT22;26723;57.478;12.066;2023-04-30T02:07:16;6.50;99.90
40996;DHT22;26723;57.478;12.066;2023-04-30T02:10:28;6.50;99.90
40996;DHT22;26723;57.478;12.066;2023-04-30T02:13:36;6.40;99.90
40996;DHT22;26723;57.478;12.066;2023-04-30T02:16:45;6.40;99.90
40996;DHT22;26723;57.478;12.066;2023-04-30T02:19:56;6.40;99.90
40996;DHT22;26723;57.478;12.066;2023-04-30T02:23:06;6.30;99.90
40996;DHT22;26723;57.478;12.066;2023-04-30T02:26:16;6.30;99.90
40996;DHT22;26723;57.478;12.066;2023-04-30T02:29:24;6.30;99.90
40996;DHT22;26723;57.478;12.066;2023-04-30T02:32:33;6.30;99.90
40996;DHT22;26723;57.478;12.066;2023-04-30T02:35:43;6.30;99.90
40996;DHT22;26723;57.478;12.066;2023-04-30T02:38:51;6.20;99.90
40996;DHT22;26723;57.478;12.066;2023-04-30T02:42:00;6.10;99.90
40996;DHT22;26723;57.478;12.066;2023-04-30T02:45:08;6.20;99.90
40996;DHT22;26723;57.478;12.066;2023-04-30T02:48:21;6.20;99.90
40996;DHT22;26723;57.478;12.066;2023-04-30T02:51:31;6.10;99.90
40996;DHT22;26723;57.478;12.066;2023-04-30T02:54:39;6.10;99.90
40996;DHT22;26723;57.478;12.066;2023-04-30T02:57:49;6.10;99.90
40996;DHT22;26723;57.478;12.066;2023-04-30T03:00:57;6.20;99.90
40996;DHT22;26723;57.478;12.066;2023-04-30T03:04:06;6.20;99.90
40996;DHT22;26723;57.478;12.066;2023-04-30T03:07:16;6.20;99.90
40996;DHT22;26723;57.478;12.066;2023-04-30T03:10:25;6.10;99.90
40996;DHT22;26723;57.478;12.066;2023-04-30T03:13:33;6.10;99.90
40996;DHT22;26723;57.478;12.066;2023-04-30T03:16:42;6.00;99.90
40996;DHT22;26723;57.478;12.066;2023-04-30T03:19:52;6.00;99.90
40996;DHT22;26723;57.478;12.066;2023-04-30T03:23:03;6.10;99.90
40996;DHT22;26723;57.478;12.066;2023-04-30T03:26:11;6.00;99.90
40996;DHT22;26723;57.478;12.066;2023-04-30T03:29:20;6.00;99.90
40996;DHT22;26723;57.478;12.066;2023-04-30T03:32:28;6.00;99.90
40996;DHT22;26723;57.478;12.066;2023-04-30T03:35:37;6.00;99.90
40996;DHT22;26723;57.478;12.066;2023-04-30T03:38:47;6.00;99.90
40996;DHT22;26723;57.478;12.066;2023-04-30T03:41:58;6.00;99.90
40996;DHT22;26723;57.478;12.066;2023-04-30T03:45:07;6.00;99.90
40996;DHT22;26723;57.478;12.066;2023-04-30T03:48:16;6.00;99.90
40996;DHT22;26723;57.478;12.066;2023-04-30T03:51:24;6.00;99.90
40996;DHT22;26723;57.478;12.066;2023-04-30T03:54:35;6.10;99.90
40996;DHT22;26723;57.478;12.066;2023-04-30T03:57:44;6.10;99.90
40996;DHT22;26723;57.478;12.066;2023-04-30T04:00:52;6.20;99.90
40996;DHT22;26723;57.478;12.066;2023-04-30T04:04:01;6.20;99.90
40996;DHT22;26723;57.478;12.066;2023-04-30T04:07:11;6.30;99.90
40996;DHT22;26723;57.478;12.066;2023-04-30T04:10:22;6.20;99.90
40996;DHT22;26723;57.478;12.066;2023-04-30T04:13:30;6.20;99.90
40996;DHT22;26723;57.478;12.066;2023-04-30T04:16:40;6.20;99.90
40996;DHT22;26723;57.478;12.066;2023-04-30T04:19:49;6.30;99.90
40996;DHT22;26723;57.478;12.066;2023-04-30T04:22:57;6.40;99.90
40996;DHT22;26723;57.478;12.066;2023-04-30T04:26:10;6.40;99.90
40996;DHT22;26723;57.478;12.066;2023-04-30T04:29:18;6.40;99.90
40996;DHT22;26723;57.478;12.066;2023-04-30T04:32:27;6.50;99.90
40996;DHT22;26723;57.478;12.066;2023-04-30T04:35:37;6.60;99.90
40996;DHT22;26723;57.478;12.066;2023-04-30T04:38:46;6.70;99.90
40996;DHT22;26723;57.478;12.066;2023-04-30T04:41:56;6.70;99.90
40996;DHT22;26723;57.478;12.066;2023-04-30T04:45:06;6.70;99.90
40996;DHT22;26723;57.478;12.066;2023-04-30T04:48:15;6.70;99.90
40996;DHT22;26723;57.478;12.066;2023-04-30T04:51:24;6.70;99.90
40996;DHT22;26723;57.478;12.066;2023-04-30T04:54:33;6.60;99.90
40996;DHT22;26723;57.478;12.066;2023-04-30T04:57:44;6.80;99.90
40996;DHT22;26723;57.478;12.066;2023-04-30T05:00:53;6.80;99.90
40996;DHT22;26723;57.478;12.066;2023-04-30T05:04:01;6.80;99.90
40996;DHT22;26723;57.478;12.066;2023-04-30T05:07:10;6.90;99.90
40996;DHT22;26723;57.478;12.066;2023-04-30T05:10:18;6.90;99.90
40996;DHT22;26723;57.478;12.066;2023-04-30T05:13:28;7.00;99.90
40996;DHT22;26723;57.478;12.066;2023-04-30T05:16:37;7.10;99.90
40996;DHT22;26723;57.478;12.066;2023-04-30T05:19:46;7.20;99.90
40996;DHT22;26723;57.478;12.066;2023-04-30T05:22:56;7.20;99.90
40996;DHT22;26723;57.478;12.066;2023-04-30T05:26:04;7.40;99.90
40996;DHT22;26723;57.478;12.066;2023-04-30T05:29:14;7.50;99.90
40996;DHT22;26723;57.478;12.066;2023-04-30T05:32:23;7.50;99.90
40996;DHT22;26723;57.478;12.066;2023-04-30T05:35:32;7.60;99.90
40996;DHT22;26723;57.478;12.066;2023-04-30T05:38:42;7.70;99.90
40996;DHT22;26723;57.478;12.066;2023-04-30T05:41:50;7.80;99.90
40996;DHT22;26723;57.478;12.066;2023-04-30T05:45:01;7.80;99.90
40996;DHT22;26723;57.478;12.066;2023-04-30T05:48:09;7.90;99.90
40996;DHT22;26723;57.478;12.066;2023-04-30T05:51:18;8.10;99.90
40996;DHT22;26723;57.478;12.066;2023-04-30T05:54:26;8.20;99.90
40996;DHT22;26723;57.478;12.066;2023-04-30T05:57:35;8.30;99.90
40996;DHT22;26723;57.478;12.066;2023-04-30T06:00:48;8.30;99.90
40996;DHT22;26723;57.478;12.066;2023-04-30T06:03:56;8.40;99.90
40996;DHT22;26723;57.478;12.066;2023-04-30T06:07:07;8.40;99.90
40996;DHT22;26723;57.478;12.066;2023-04-30T06:10:15;8.40;99.90
40996;DHT22;26723;57.478;12.066;2023-04-30T06:13:24;8.80;99.90
40996;DHT22;26723;57.478;12.066;2023-04-30T06:16:34;9.00;99.90
40996;DHT22;26723;57.478;12.066;2023-04-30T06:19:42;9.40;99.90
40996;DHT22;26723;57.478;12.066;2023-04-30T06:22:51;9.50;99.90
40996;DHT22;26723;57.478;12.066;2023-04-30T06:25:59;9.60;99.90
40996;DHT22;26723;57.478;12.066;2023-04-30T06:29:08;9.60;99.90
40996;DHT22;26723;57.478;12.066;2023-04-30T06:32:18;13.70;99.90
40996;DHT22;26723;57.478;12.066;2023-04-30T06:35:26;16.10;99.90
40996;DHT22;26723;57.478;12.066;2023-04-30T06:38:35;14.60;99.90
40996;DHT22;26723;57.478;12.066;2023-04-30T06:41:43;12.90;99.90
40996;DHT22;26723;57.478;12.066;2023-04-30T06:44:53;14.90;99.90
40996;DHT22;26723;57.478;12.066;2023-04-30T06:48:04;17.50;99.70
40996;DHT22;26723;57.478;12.066;2023-04-30T06:51:13;14.40;99.40
40996;DHT22;26723;57.478;12.066;2023-04-30T06:54:22;12.20;99.90
40996;DHT22;26723;57.478;12.066;2023-04-30T06:57:34;12.20;99.90
40996;DHT22;26723;57.478;12.066;2023-04-30T07:00:43;16.70;99.90
40996;DHT22;26723;57.478;12.066;2023-04-30T07:03:53;18.80;94.20
40996;DHT22;26723;57.478;12.066;2023-04-30T07:07:02;19.70;92.80
40996;DHT22;26723;57.478;12.066;2023-04-30T07:10:12;20.70;90.60
40996;DHT22;26723;57.478;12.066;2023-04-30T07:13:20;20.00;90.10
40996;DHT22;26723;57.478;12.066;2023-04-30T07:16:31;18.90;90.00
40996;DHT22;26723;57.478;12.066;2023-04-30T07:19:41;16.50;90.10
40996;DHT22;26723;57.478;12.066;2023-04-30T07:22:50;15.10;93.10
40996;DHT22;26723;57.478;12.066;2023-04-30T07:26:00;16.80;92.90
40996;DHT22;26723;57.478;12.066;2023-04-30T07:29:10;16.70;92.40
40996;DHT22;26723;57.478;12.066;2023-04-30T07:32:19;15.60;91.90
40996;DHT22;26723;57.478;12.066;2023-04-30T07:35:37;15.10;93.40
40996;DHT22;26723;57.478;12.066;2023-04-30T07:38:45;16.10;93.30
40996;DHT22;26723;57.478;12.066;2023-04-30T07:41:54;16.20;93.30
40996;DHT22;26723;57.478;12.066;2023-04-30T07:45:05;16.00;92.40
40996;DHT22;26723;57.478;12.066;2023-04-30T07:48:14;15.60;93.20
40996;DHT22;26723;57.478;12.066;2023-04-30T07:51:24;14.60;94.40
40996;DHT22;26723;57.478;12.066;2023-04-30T07:54:33;14.10;94.20
40996;DHT22;26723;57.478;12.066;2023-04-30T07:57:43;14.30;96.60
40996;DHT22;26723;57.478;12.066;2023-04-30T08:00:52;16.20;95.10
40996;DHT22;26723;57.478;12.066;2023-04-30T08:04:00;16.50;96.30
40996;DHT22;26723;57.478;12.066;2023-04-30T08:07:10;16.00;93.60
40996;DHT22;26723;57.478;12.066;2023-04-30T08:10:20;17.20;93.30
40996;DHT22;26723;57.478;12.066;2023-04-30T08:13:28;15.80;92.50
40996;DHT22;26723;57.478;12.066;2023-04-30T08:16:37;14.40;94.60
40996;DHT22;26723;57.478;12.066;2023-04-30T08:19:46;14.80;94.50
40996;DHT22;26723;57.478;12.066;2023-04-30T08:22:56;16.10;94.90
40996;DHT22;26723;57.478;12.066;2023-04-30T08:26:04;17.20;94.40
40996;DHT22;26723;57.478;12.066;2023-04-30T08:29:13;16.90;94.10
40996;DHT22;26723;57.478;12.066;2023-04-30T08:32:22;16.30;93.70
40996;DHT22;26723;57.478;12.066;2023-04-30T08:35:33;15.90;92.40
40996;DHT22;26723;57.478;12.066;2023-04-30T08:38:42;15.70;93.20
40996;DHT22;26723;57.478;12.066;2023-04-30T08:41:54;14.60;95.10
40996;DHT22;26723;57.478;12.066;2023-04-30T08:45:03;14.20;95.70
40996;DHT22;26723;57.478;12.066;2023-04-30T08:48:12;15.50;95.90
40996;DHT22;26723;57.478;12.066;2023-04-30T08:51:23;16.10;95.30
40996;DHT22;26723;57.478;12.066;2023-04-30T08:54:35;16.10;94.50
40996;DHT22;26723;57.478;12.066;2023-04-30T08:57:43;14.90;94.90
40996;DHT22;26723;57.478;12.066;2023-04-30T09:00:52;15.10;95.30
40996;DHT22;26723;57.478;12.066;2023-04-30T09:04:02;16.70;95.20
40996;DHT22;26723;57.478;12.066;2023-04-30T09:07:12;17.20;93.50
40996;DHT22;26723;57.478;12.066;2023-04-30T09:10:22;17.80;93.20
40996;DHT22;26723;57.478;12.066;2023-04-30T09:13:39;17.10;92.90
40996;DHT22;26723;57.478;12.066;2023-04-30T09:16:50;17.70;93.20
40996;DHT22;26723;57.478;12.066;2023-04-30T09:20:06;17.50;92.20
40996;DHT22;26723;57.478;12.066;2023-04-30T09:23:15;16.60;92.00
40996;DHT22;26723;57.478;12.066;2023-04-30T09:26:30;16.30;90.90
40996;DHT22;26723;57.478;12.066;2023-04-30T09:29:39;15.40;90.40
40996;DHT22;26723;57.478;12.066;2023-04-30T09:32:54;15.20;91.70
40996;DHT22;26723;57.478;12.066;2023-04-30T09:36:08;16.00;92.30
40996;DHT22;26723;57.478;12.066;2023-04-30T09:39:17;16.60;92.20
40996;DHT22;26723;57.478;12.066;2023-04-30T09:42:27;17.30;92.50
40996;DHT22;26723;57.478;12.066;2023-04-30T09:45:41;17.00;90.30
40996;DHT22;26723;57.478;12.066;2023-04-30T09:48:56;15.90;92.20
40996;DHT22;26723;57.478;12.066;2023-04-30T09:52:05;15.90;91.80
40996;DHT22;26723;57.478;12.066;2023-04-30T09:55:13;14.80;91.30
40996;DHT22;26723;57.478;12.066;2023-04-30T09:58:27;15.10;91.40
40996;DHT22;26723;57.478;12.066;2023-04-30T10:01:36;14.70;92.20
40996;DHT22;26723;57.478;12.066;2023-04-30T10:04:52;15.30;92.30
40996;DHT22;26723;57.478;12.066;2023-04-30T10:08:01;15.60;91.70
40996;DHT22;26723;57.478;12.066;2023-04-30T10:11:14;15.10;92.00
40996;DHT22;26723;57.478;12.066;2023-04-30T10:14:25;14.70;91.70
40996;DHT22;26723;57.478;12.066;2023-04-30T10:17:38;14.90;93.00
40996;DHT22;26723;57.478;12.066;2023-04-30T10:20:50;15.30;92.50
40996;DHT22;26723;57.478;12.066;2023-04-30T10:24:02;15.70;91.70
40996;DHT22;26723;57.478;12.066;2023-04-30T10:27:11;14.80;91.50
40996;DHT22;26723;57.478;12.066;2023-04-30T10:30:22;14.20;91.90
40996;DHT22;26723;57.478;12.066;2023-04-30T10:33:34;13.60;92.70
40996;DHT22;26723;57.478;12.066;2023-04-30T10:36:47;14.30;93.40
40996;DHT22;26723;57.478;12.066;2023-04-30T10:39:56;14.50;93.20
40996;DHT22;26723;57.478;12.066;2023-04-30T10:43:04;15.00;93.00
40996;DHT22;26723;57.478;12.066;2023-04-30T10:46:21;14.80;93.20
40996;DHT22;26723;57.478;12.066;2023-04-30T10:49:32;15.00;93.00
40996;DHT22;26723;57.478;12.066;2023-04-30T10:52:43;15.20;94.90
40996;DHT22;26723;57.478;12.066;2023-04-30T10:55:53;15.00;93.30
40996;DHT22;26723;57.478;12.066;2023-04-30T10:59:02;14.50;93.30
40996;DHT22;26723;57.478;12.066;2023-04-30T11:02:14;14.00;93.30
40996;DHT22;26723;57.478;12.066;2023-04-30T11:05:36;14.10;94.20
40996;DHT22;26723;57.478;12.066;2023-04-30T11:08:45;13.90;93.10
40996;DHT22;26723;57.478;12.066;2023-04-30T11:12:01;13.70;94.30
40996;DHT22;26723;57.478;12.066;2023-04-30T11:15:12;13.30;93.10
40996;DHT22;26723;57.478;12.066;2023-04-30T11:18:29;13.00;93.80
40996;DHT22;26723;57.478;12.066;2023-04-30T11:21:40;13.10;94.10
40996;DHT22;26723;57.478;12.066;2023-04-30T11:24:53;13.60;94.30
40996;DHT22;26723;57.478;12.066;2023-04-30T11:28:03;13.20;93.50
40996;DHT22;26723;57.478;12.066;2023-04-30T11:31:12;13.50;93.50
40996;DHT22;26723;57.478;12.066;2023-04-30T11:34:24;13.30;93.00
40996;DHT22;26723;57.478;12.066;2023-04-30T11:37:35;13.70;93.70
40996;DHT22;26723;57.478;12.066;2023-04-30T11:40:44;13.20;93.20
40996;DHT22;26723;57.478;12.066;2023-04-30T11:43:54;12.70;93.90
40996;DHT22;26723;57.478;12.066;2023-04-30T11:47:03;12.80;93.60
40996;DHT22;26723;57.478;12.066;2023-04-30T11:50:15;12.60;93.60
40996;DHT22;26723;57.478;12.066;2023-04-30T11:53:26;12.40;95.50
40996;DHT22;26723;57.478;12.066;2023-04-30T11:56:37;12.70;94.90
40996;DHT22;26723;57.478;12.066;2023-04-30T11:59:47;12.90;94.30
40996;DHT22;26723;57.478;12.066;2023-04-30T12:02:56;12.60;93.90
40996;DHT22;26723;57.478;12.066;2023-04-30T12:06:10;12.30;94.20
40996;DHT22;26723;57.478;12.066;2023-04-30T12:09:21;12.20;94.00
40996;DHT22;26723;57.478;12.066;2023-04-30T12:12:31;12.00;94.10
40996;DHT22;26723;57.478;12.066;2023-04-30T12:15:40;12.20;94.50
40996;DHT22;26723;57.478;12.066;2023-04-30T12:18:48;12.30;95.10
40996;DHT22;26723;57.478;12.066;2023-04-30T12:22:00;11.90;93.80
40996;DHT22;26723;57.478;12.066;2023-04-30T12:25:12;11.60;95.20
40996;DHT22;26723;57.478;12.066;2023-04-30T12:28:22;11.60;94.90
40996;DHT22;26723;57.478;12.066;2023-04-30T12:31:31;11.70;94.90
40996;DHT22;26723;57.478;12.066;2023-04-30T12:34:41;11.70;95.30
40996;DHT22;26723;57.478;12.066;2023-04-30T12:38:00;11.60;95.60
40996;DHT22;26723;57.478;12.066;2023-04-30T12:41:10;11.50;96.50
40996;DHT22;26723;57.478;12.066;2023-04-30T12:44:22;11.30;97.00
40996;DHT22;26723;57.478;12.066;2023-04-30T12:47:31;11.50;96.30
40996;DHT22;26723;57.478;12.066;2023-04-30T12:50:39;11.40;96.60
40996;DHT22;26723;57.478;12.066;2023-04-30T12:53:49;11.60;97.00
40996;DHT22;26723;57.478;12.066;2023-04-30T12:56:59;11.40;97.20
40996;DHT22;26723;57.478;12.066;2023-04-30T13:00:08;11.40;97.70
40996;DHT22;26723;57.478;12.066;2023-04-30T13:03:18;11.00;98.40
40996;DHT22;26723;57.478;12.066;2023-04-30T13:06:27;10.90;98.60
40996;DHT22;26723;57.478;12.066;2023-04-30T13:09:37;11.20;99.20
40996;DHT22;26723;57.478;12.066;2023-04-30T13:12:46;11.20;99.10
40996;DHT22;26723;57.478;12.066;2023-04-30T13:15:55;11.30;99.30
40996;DHT22;26723;57.478;12.066;2023-04-30T13:19:03;11.20;99.40
40996;DHT22;26723;57.478;12.066;2023-04-30T13:22:20;10.80;99.30
40996;DHT22;26723;57.478;12.066;2023-04-30T13:25:33;11.00;99.90
40996;DHT22;26723;57.478;12.066;2023-04-30T13:28:42;11.10;98.90
40996;DHT22;26723;57.478;12.066;2023-04-30T13:31:51;11.00;99.10
40996;DHT22;26723;57.478;12.066;2023-04-30T13:34:59;11.20;98.50
40996;DHT22;26723;57.478;12.066;2023-04-30T13:38:08;11.10;99.00
40996;DHT22;26723;57.478;12.066;2023-04-30T13:41:18;11.00;99.70
40996;DHT22;26723;57.478;12.066;2023-04-30T13:44:27;11.10;99.90
40996;DHT22;26723;57.478;12.066;2023-04-30T13:47:38;11.10;99.30
40996;DHT22;26723;57.478;12.066;2023-04-30T13:50:47;11.20;99.40
40996;DHT22;26723;57.478;12.066;2023-04-30T13:53:55;11.30;99.90
40996;DHT22;26723;57.478;12.066;2023-04-30T13:57:05;11.40;99.70
40996;DHT22;26723;57.478;12.066;2023-04-30T14:00:14;11.20;99.90
40996;DHT22;26723;57.478;12.066;2023-04-30T14:03:23;11.10;99.90
40996;DHT22;26723;57.478;12.066;2023-04-30T14:06:33;10.90;99.90
40996;DHT22;26723;57.478;12.066;2023-04-30T14:09:42;11.10;99.90
40996;DHT22;26723;57.478;12.066;2023-04-30T14:12:52;11.00;99.80
40996;DHT22;26723;57.478;12.066;2023-04-30T14:16:00;11.00;99.70
40996;DHT22;26723;57.478;12.066;2023-04-30T14:19:09;10.80;99.70
40996;DHT22;26723;57.478;12.066;2023-04-30T14:22:18;10.80;99.90
40996;DHT22;26723;57.478;12.066;2023-04-30T14:25:27;10.80;99.90
40996;DHT22;26723;57.478;12.066;2023-04-30T14:28:37;10.60;99.90
40996;DHT22;26723;57.478;12.066;2023-04-30T14:31:46;10.50;99.90
40996;DHT22;26723;57.478;12.066;2023-04-30T14:34:54;10.30;99.90
40996;DHT22;26723;57.478;12.066;2023-04-30T14:38:03;10.30;99.90
40996;DHT22;26723;57.478;12.066;2023-04-30T14:41:11;10.40;99.90
40996;DHT22;26723;57.478;12.066;2023-04-30T14:44:21;10.40;99.90
40996;DHT22;26723;57.478;12.066;2023-04-30T14:47:31;10.40;99.90
40996;DHT22;26723;57.478;12.066;2023-04-30T14:50:40;10.40;99.90
40996;DHT22;26723;57.478;12.066;2023-04-30T14:53:49;10.30;99.90
40996;DHT22;26723;57.478;12.066;2023-04-30T14:56:57;10.30;99.90
40996;DHT22;26723;57.478;12.066;2023-04-30T15:00:08;10.30;99.90
40996;DHT22;26723;57.478;12.066;2023-04-30T15:03:18;10.30;99.90
40996;DHT22;26723;57.478;12.066;2023-04-30T15:06:27;10.40;99.90
40996;DHT22;26723;57.478;12.066;2023-04-30T15:09:37;10.30;99.90
40996;DHT22;26723;57.478;12.066;2023-04-30T15:12:47;10.20;99.90
40996;DHT22;26723;57.478;12.066;2023-04-30T15:15:57;10.20;99.90
40996;DHT22;26723;57.478;12.066;2023-04-30T15:19:05;10.20;99.90
40996;DHT22;26723;57.478;12.066;2023-04-30T15:22:14;10.10;99.90
40996;DHT22;26723;57.478;12.066;2023-04-30T15:25:23;10.10;99.90
40996;DHT22;26723;57.478;12.066;2023-04-30T15:28:31;10.10;99.90
40996;DHT22;26723;57.478;12.066;2023-04-30T15:31:41;10.20;99.90
40996;DHT22;26723;57.478;12.066;2023-04-30T15:34:50;10.30;99.90
40996;DHT22;26723;57.478;12.066;2023-04-30T15:37:58;10.40;99.90
40996;DHT22;26723;57.478;12.066;2023-04-30T15:41:07;10.30;99.90
40996;DHT22;26723;57.478;12.066;2023-04-30T15:44:16;10.40;99.90
40996;DHT22;26723;57.478;12.066;2023-04-30T15:47:25;10.40;99.90
40996;DHT22;26723;57.478;12.066;2023-04-30T15:50:34;10.40;99.90
40996;DHT22;26723;57.478;12.066;2023-04-30T15:53:42;10.40;99.90
40996;DHT22;26723;57.478;12.066;2023-04-30T15:56:51;10.20;99.90
40996;DHT22;26723;57.478;12.066;2023-04-30T15:59:59;10.30;99.90
40996;DHT22;26723;57.478;12.066;2023-04-30T16:03:19;10.20;99.90
40996;DHT22;26723;57.478;12.066;2023-04-30T16:06:42;10.10;99.90
40996;DHT22;26723;57.478;12.066;2023-04-30T16:09:52;10.20;99.90
40996;DHT22;26723;57.478;12.066;2023-04-30T16:13:01;10.10;99.90
40996;DHT22;26723;57.478;12.066;2023-04-30T16:16:09;9.90;99.90
40996;DHT22;26723;57.478;12.066;2023-04-30T16:19:21;9.80;99.90
40996;DHT22;26723;57.478;12.066;2023-04-30T16:22:29;9.90;99.90
40996;DHT22;26723;57.478;12.066;2023-04-30T16:25:39;9.90;99.90
40996;DHT22;26723;57.478;12.066;2023-04-30T16:28:47;10.00;99.90
40996;DHT22;26723;57.478;12.066;2023-04-30T16:31:57;9.90;99.90
40996;DHT22;26723;57.478;12.066;2023-04-30T16:35:08;9.90;99.90
40996;DHT22;26723;57.478;12.066;2023-04-30T16:38:17;9.90;99.90
40996;DHT22;26723;57.478;12.066;2023-04-30T16:41:27;9.90;99.90
40996;DHT22;26723;57.478;12.066;2023-04-30T16:44:36;9.60;99.90
40996;DHT22;26723;57.478;12.066;2023-04-30T16:47:45;9.50;99.90
40996;DHT22;26723;57.478;12.066;2023-04-30T16:50:56;9.60;99.90
40996;DHT22;26723;57.478;12.066;2023-04-30T16:54:05;9.70;99.90
40996;DHT22;26723;57.478;12.066;2023-04-30T16:57:13;9.50;99.90
40996;DHT22;26723;57.478;12.066;2023-04-30T17:00:22;9.40;99.90
40996;DHT22;26723;57.478;12.066;2023-04-30T17:03:31;9.40;99.90
40996;DHT22;26723;57.478;12.066;2023-04-30T17:06:42;9.50;99.90
40996;DHT22;26723;57.478;12.066;2023-04-30T17:09:51;9.60;99.90
40996;DHT22;26723;57.478;12.066;2023-04-30T17:13:04;9.60;99.90
40996;DHT22;26723;57.478;12.066;2023-04-30T17:16:12;9.60;99.90
40996;DHT22;26723;57.478;12.066;2023-04-30T17:19:25;9.50;99.90
40996;DHT22;26723;57.478;12.066;2023-04-30T17:22:39;9.30;99.90
40996;DHT22;26723;57.478;12.066;2023-04-30T17:25:47;9.40;99.90
40996;DHT22;26723;57.478;12.066;2023-04-30T17:28:56;9.30;99.90
40996;DHT22;26723;57.478;12.066;2023-04-30T17:32:05;9.30;99.90
40996;DHT22;26723;57.478;12.066;2023-04-30T17:35:14;9.30;99.90
40996;DHT22;26723;57.478;12.066;2023-04-30T17:38:31;9.20;99.90
40996;DHT22;26723;57.478;12.066;2023-04-30T17:41:40;9.10;99.90
40996;DHT22;26723;57.478;12.066;2023-04-30T17:44:51;9.00;99.90
40996;DHT22;26723;57.478;12.066;2023-04-30T17:48:00;9.00;99.90
40996;DHT22;26723;57.478;12.066;2023-04-30T17:51:09;8.90;99.90
40996;DHT22;26723;57.478;12.066;2023-04-30T17:54:18;9.00;99.90
40996;DHT22;26723;57.478;12.066;2023-04-30T17:57:27;9.00;99.90
40996;DHT22;26723;57.478;12.066;2023-04-30T18:00:40;9.00;99.90
40996;DHT22;26723;57.478;12.066;2023-04-30T18:03:49;9.00;99.90
40996;DHT22;26723;57.478;12.066;2023-04-30T18:06:59;9.00;99.90
40996;DHT22;26723;57.478;12.066;2023-04-30T18:10:10;9.00;99.90
40996;DHT22;26723;57.478;12.066;2023-04-30T18:13:18;8.90;99.90
40996;DHT22;26723;57.478;12.066;2023-04-30T18:16:27;8.80;99.90
40996;DHT22;26723;57.478;12.066;2023-04-30T18:19:36;8.60;99.90
40996;DHT22;26723;57.478;12.066;2023-04-30T18:22:49;8.60;99.90
40996;DHT22;26723;57.478;12.066;2023-04-30T18:26:00;8.40;99.90
40996;DHT22;26723;57.478;12.066;2023-04-30T18:29:08;8.30;99.90
40996;DHT22;26723;57.478;12.066;2023-04-30T18:32:17;8.30;99.90
40996;DHT22;26723;57.478;12.066;2023-04-30T18:35:26;8.20;99.90
40996;DHT22;26723;57.478;12.066;2023-04-30T18:38:34;8.20;99.90
40996;DHT22;26723;57.478;12.066;2023-04-30T18:41:45;8.20;99.90
40996;DHT22;26723;57.478;12.066;2023-04-30T18:44:54;8.20;99.90
40996;DHT22;26723;57.478;12.066;2023-04-30T18:48:03;8.10;99.90
40996;DHT22;26723;57.478;12.066;2023-04-30T18:51:12;8.20;99.90
40996;DHT22;26723;57.478;12.066;2023-04-30T18:54:21;8.20;99.90
40996;DHT22;26723;57.478;12.066;2023-04-30T18:57:31;8.20;99.90
40996;DHT22;26723;57.478;12.066;2023-04-30T19:00:40;8.20;99.90
40996;DHT22;26723;57.478;12.066;2023-04-30T19:03:49;8.10;99.90
40996;DHT22;26723;57.478;12.066;2023-04-30T19:06:57;8.10;99.90
40996;DHT22;26723;57.478;12.066;2023-04-30T19:10:06;8.10;99.90
40996;DHT22;26723;57.478;12.066;2023-04-30T19:13:16;8.10;99.90
40996;DHT22;26723;57.478;12.066;2023-04-30T19:16:25;8.00;99.90
40996;DHT22;26723;57.478;12.066;2023-04-30T19:19:34;7.90;99.90
40996;DHT22;26723;57.478;12.066;2023-04-30T19:22:43;7.90;99.90
40996;DHT22;26723;57.478;12.066;2023-04-30T19:25:51;8.00;99.90
40996;DHT22;26723;57.478;12.066;2023-04-30T19:29:01;8.00;99.90
40996;DHT22;26723;57.478;12.066;2023-04-30T19:32:10;7.90;99.90
40996;DHT22;26723;57.478;12.066;2023-04-30T19:35:18;7.80;99.90
40996;DHT22;26723;57.478;12.066;2023-04-30T19:38:27;7.80;99.90
40996;DHT22;26723;57.478;12.066;2023-04-30T19:41:35;7.80;99.90
40996;DHT22;26723;57.478;12.066;2023-04-30T19:44:45;7.80;99.90
40996;DHT22;26723;57.478;12.066;2023-04-30T19:47:54;7.70;99.90
40996;DHT22;26723;57.478;12.066;2023-04-30T19:51:03;7.70;99.90
40996;DHT22;26723;57.478;12.066;2023-04-30T19:54:12;7.60;99.90